Time;durP1;ratioP1;P1;durP2;ratioP2;P2;SDS_P1;SDS_P2;PMS_P1;PMS_P2;Temp;Humidity;BMP_temperature;BMP_pressure;BME280_temperature;BME280_humidity;BME280_pressure;Samples;Min_cycle;Max_cycle;Signal;HPM_P1;HPM_P2
2021/03/03 00:01:44;;;;;;;17.83;11.37;;;;;;;;;;5031422;28;20462;-77
2021/03/03 00:04:11;;;;;;;19.87;11.67;;;;;;;;;;5032207;28;20469;-77
2021/03/03 00:06:38;;;;;;;20.20;12.13;;;;;;;;;;5032150;28;20530;-76
2021/03/03 00:09:05;;;;;;;17.10;11.30;;;;;;;;;;5032395;28;20487;-78
2021/03/03 00:11:32;;;;;;;19.20;11.60;;;;;;;;;;5024669;28;20841;-75
2021/03/03 00:13:59;;;;;;;19.33;12.10;;;;;;;;;;5024556;28;20468;-75
2021/03/03 00:16:26;;;;;;;19.03;11.67;;;;;;;;;;5033657;28;20988;-75
2021/03/03 00:18:53;;;;;;;18.93;10.90;;;;;;;;;;5034378;28;20451;-76
2021/03/03 00:21:20;;;;;;;20.47;11.73;;;;;;;;;;5034660;28;20456;-76
2021/03/03 00:23:47;;;;;;;19.70;11.53;;;;;;;;;;5034998;28;20555;-76
2021/03/03 00:26:14;;;;;;;17.80;11.47;;;;;;;;;;5036165;28;20452;-75
2021/03/03 00:28:41;;;;;;;18.57;11.70;;;;;;;;;;5035932;28;20449;-75
2021/03/03 00:31:08;;;;;;;18.70;12.73;;;;;;;;;;5035996;28;20459;-75
2021/03/03 00:33:35;;;;;;;17.43;11.60;;;;;;;;;;5025990;28;20480;-75
2021/03/03 00:36:02;;;;;;;23.03;11.30;;;;;;;;;;5023539;28;20448;-75
2021/03/03 00:38:28;;;;;;;20.57;11.83;;;;;;;;;;5033292;28;20445;-75
2021/03/03 00:40:56;;;;;;;18.47;11.07;;;;;;;;;;5033434;28;20453;-75
2021/03/03 00:43:23;;;;;;;18.90;11.53;;;;;;;;;;5033571;28;20974;-75
2021/03/03 00:45:50;;;;;;;17.80;10.77;;;;;;;;;;5034265;28;20461;-76
2021/03/03 00:48:17;;;;;;;16.13;11.77;;;;;;;;;;5035459;28;20451;-76
2021/03/03 00:50:43;;;;;;;17.57;11.00;;;;;;;;;;5035595;28;20652;-74
2021/03/03 00:53:10;;;;;;;18.57;10.87;;;;;;;;;;5035519;28;20484;-76
2021/03/03 00:55:38;;;;;;;19.50;11.60;;;;;;;;;;5026480;28;20449;-75
2021/03/03 00:58:05;;;;;;;15.15;10.77;;;;;;;;;;5022565;28;20441;-77
2021/03/03 01:00:32;;;;;;;21.03;12.70;;;;;;;;;;5032862;28;20844;-78
2021/03/03 01:02:59;;;;;;;23.93;12.60;;;;;;;;;;5015421;28;20451;-76
2021/03/03 01:05:26;;;;;;;18.67;11.93;;;;;;;;;;5033241;28;20509;-75
2021/03/03 01:07:53;;;;;;;21.10;12.10;;;;;;;;;;5033753;28;20204;-74
2021/03/03 01:10:20;;;;;;;21.93;12.53;;;;;;;;;;5026959;28;20539;-76
2021/03/03 01:12:47;;;;;;;22.97;12.30;;;;;;;;;;5020648;28;20478;-76
2021/03/03 01:15:15;;;;;;;18.77;11.27;;;;;;;;;;5012844;28;20503;-75
2021/03/03 01:17:42;;;;;;;17.80;11.53;;;;;;;;;;5013224;28;20464;-76
2021/03/03 01:20:10;;;;;;;24.75;12.75;;;;;;;;;;5013367;28;20792;-76
2021/03/03 01:22:37;;;;;;;18.35;12.30;;;;;;;;;;5020259;28;20210;-77
2021/03/03 01:25:04;;;;;;;19.00;11.98;;;;;;;;;;5017496;28;20344;-77
2021/03/03 01:27:31;;;;;;;21.02;13.07;;;;;;;;;;5034865;28;20213;-75
2021/03/03 01:29:58;;;;;;;20.80;12.20;;;;;;;;;;5034682;28;20202;-75
2021/03/03 01:32:25;;;;;;;20.88;11.80;;;;;;;;;;5027173;28;20528;-75
2021/03/03 01:34:52;;;;;;;20.15;11.02;;;;;;;;;;5020345;28;20222;-75
2021/03/03 01:37:19;;;;;;;18.48;11.32;;;;;;;;;;5012460;28;20217;-76
2021/03/03 01:39:46;;;;;;;22.02;12.20;;;;;;;;;;5012818;28;20206;-75
2021/03/03 01:42:13;;;;;;;19.15;11.32;;;;;;;;;;5012818;28;20668;-75
2021/03/03 01:44:39;;;;;;;18.85;11.63;;;;;;;;;;5019825;28;20221;-75
2021/03/03 01:47:06;;;;;;;20.10;12.85;;;;;;;;;;5034575;28;20210;-75
2021/03/03 01:49:34;;;;;;;19.48;12.38;;;;;;;;;;5034633;28;20293;-76
2021/03/03 01:52:01;;;;;;;19.77;11.90;;;;;;;;;;5034425;28;20234;-76
2021/03/03 01:54:28;;;;;;;20.35;11.30;;;;;;;;;;5027183;28;20217;-76
2021/03/03 01:56:55;;;;;;;22.63;13.18;;;;;;;;;;5020113;28;20224;-76
2021/03/03 01:59:22;;;;;;;18.77;12.15;;;;;;;;;;5012129;28;20243;-77
2021/03/03 02:01:48;;;;;;;19.23;11.63;;;;;;;;;;5012284;28;20199;-75
2021/03/03 02:04:15;;;;;;;19.15;12.25;;;;;;;;;;5012348;28;20218;-76
2021/03/03 02:06:46;;;;;;;20.67;12.60;;;;;;;;;;5018580;28;20593;-76
2021/03/03 02:09:16;;;;;;;21.45;11.77;;;;;;;;;;5033074;28;20204;-78
2021/03/03 02:11:45;;;;;;;17.25;10.85;;;;;;;;;;5033554;28;20233;-75
2021/03/03 02:14:14;;;;;;;20.10;12.65;;;;;;;;;;5033788;28;20221;-75
2021/03/03 02:16:42;;;;;;;19.17;12.68;;;;;;;;;;5026413;28;20209;-75
2021/03/03 02:19:12;;;;;;;17.67;12.25;;;;;;;;;;5019849;28;20343;-75
2021/03/03 02:21:43;;;;;;;18.38;12.00;;;;;;;;;;5011735;28;20206;-75
2021/03/03 02:24:12;;;;;;;22.95;12.70;;;;;;;;;;5011736;28;20548;-76
2021/03/03 02:26:40;;;;;;;21.52;12.50;;;;;;;;;;5012429;28;20215;-75
2021/03/03 02:29:08;;;;;;;25.50;12.63;;;;;;;;;;5020459;28;20195;-75
2021/03/03 02:31:36;;;;;;;18.33;11.70;;;;;;;;;;5033647;28;20204;-75
2021/03/03 02:34:04;;;;;;;19.98;12.05;;;;;;;;;;5032566;28;20221;-76
2021/03/03 02:36:31;;;;;;;22.70;12.45;;;;;;;;;;5033293;28;20209;-76
2021/03/03 02:38:58;;;;;;;21.48;12.30;;;;;;;;;;5025628;28;20192;-75
2021/03/03 02:41:25;;;;;;;19.02;12.68;;;;;;;;;;5002379;28;21084;-77
2021/03/03 02:43:53;;;;;;;21.08;12.25;;;;;;;;;;5030929;28;20220;-76
2021/03/03 02:46:21;;;;;;;19.80;12.90;;;;;;;;;;5031047;28;20196;-74
2021/03/03 02:48:48;;;;;;;20.25;12.52;;;;;;;;;;5031075;28;20204;-74
2021/03/03 02:51:15;;;;;;;21.40;12.32;;;;;;;;;;5017855;28;20290;-76
2021/03/03 02:53:44;;;;;;;20.73;12.15;;;;;;;;;;5033107;28;20231;-75
2021/03/03 02:56:11;;;;;;;22.45;12.30;;;;;;;;;;5033387;28;20246;-75
2021/03/03 02:58:38;;;;;;;21.60;12.75;;;;;;;;;;5033227;28;20199;-76
2021/03/03 03:01:08;;;;;;;20.17;12.60;;;;;;;;;;5025248;28;20296;-75
2021/03/03 03:03:36;;;;;;;19.73;12.20;;;;;;;;;;5001182;28;20250;-75
2021/03/03 03:06:06;;;;;;;19.90;11.93;;;;;;;;;;5010977;28;20235;-76
2021/03/03 03:08:35;;;;;;;18.20;11.30;;;;;;;;;;4993882;28;20200;-78
2021/03/03 03:11:03;;;;;;;18.77;12.57;;;;;;;;;;5011167;28;20235;-75
2021/03/03 03:13:30;;;;;;;21.27;12.57;;;;;;;;;;5011457;28;20232;-74
2021/03/03 03:15:59;;;;;;;17.13;11.48;;;;;;;;;;5015710;28;20646;-75
2021/03/03 03:18:29;;;;;;;19.25;12.02;;;;;;;;;;5032747;28;20207;-75
2021/03/03 03:20:56;;;;;;;20.48;12.40;;;;;;;;;;5032849;28;20213;-74
2021/03/03 03:23:23;;;;;;;19.17;13.73;;;;;;;;;;5024064;28;20208;-75
2021/03/03 03:25:52;;;;;;;23.42;12.40;;;;;;;;;;5019795;28;20204;-76
2021/03/03 03:28:18;;;;;;;26.88;12.70;;;;;;;;;;5030149;28;20214;-76
2021/03/03 03:30:45;;;;;;;21.33;13.13;;;;;;;;;;5030238;28;20207;-74
2021/03/03 03:33:12;;;;;;;21.33;13.15;;;;;;;;;;5030723;28;20222;-77
2021/03/03 03:35:41;;;;;;;20.70;13.05;;;;;;;;;;5031393;28;20539;-75
2021/03/03 03:38:08;;;;;;;18.15;11.50;;;;;;;;;;5032500;28;20289;-76
2021/03/03 03:40:35;;;;;;;22.42;14.10;;;;;;;;;;5032595;28;20260;-76
2021/03/03 03:43:02;;;;;;;20.33;11.77;;;;;;;;;;5032352;28;20199;-76
2021/03/03 03:45:30;;;;;;;21.13;12.95;;;;;;;;;;5015184;28;20537;-76
2021/03/03 03:47:57;;;;;;;22.40;13.65;;;;;;;;;;5018378;28;20533;-76
2021/03/03 03:50:26;;;;;;;27.23;14.07;;;;;;;;;;4992914;28;20211;-76
2021/03/03 03:52:54;;;;;;;20.10;12.43;;;;;;;;;;5010358;28;20315;-75
2021/03/03 03:55:21;;;;;;;19.67;11.98;;;;;;;;;;5010717;28;20202;-78
2021/03/03 03:57:49;;;;;;;19.75;12.60;;;;;;;;;;5019220;28;20604;-76
2021/03/03 04:00:18;;;;;;;19.52;12.27;;;;;;;;;;5032498;28;20561;-77
2021/03/03 04:02:44;;;;;;;20.02;12.25;;;;;;;;;;5015035;28;20659;-76
2021/03/03 04:05:12;;;;;;;24.77;13.63;;;;;;;;;;5032686;28;20223;-76
2021/03/03 04:07:39;;;;;;;21.92;13.82;;;;;;;;;;5007002;28;20195;-75
2021/03/03 04:10:08;;;;;;;20.55;12.27;;;;;;;;;;5003325;28;20639;-76
2021/03/03 04:12:35;;;;;;;20.77;12.00;;;;;;;;;;5029612;28;20369;-76
2021/03/03 04:15:01;;;;;;;19.95;13.05;;;;;;;;;;5029825;28;20227;-76
2021/03/03 04:17:28;;;;;;;20.55;12.65;;;;;;;;;;5030594;28;20571;-76
2021/03/03 04:19:55;;;;;;;20.75;12.65;;;;;;;;;;5030788;28;20206;-75
2021/03/03 04:22:21;;;;;;;25.13;12.88;;;;;;;;;;5032312;28;20254;-75
2021/03/03 04:24:48;;;;;;;18.33;12.88;;;;;;;;;;5032052;28;20224;-76
2021/03/03 04:27:19;;;;;;;20.27;12.25;;;;;;;;;;5032311;28;20213;-76
2021/03/03 04:29:46;;;;;;;22.35;13.20;;;;;;;;;;5023654;28;20207;-76
2021/03/03 04:32:13;;;;;;;18.98;12.27;;;;;;;;;;5017403;28;20229;-75
2021/03/03 04:34:39;;;;;;;21.98;14.15;;;;;;;;;;5009774;28;20291;-75
2021/03/03 04:37:06;;;;;;;22.17;13.23;;;;;;;;;;5010119;28;20307;-76
2021/03/03 04:39:33;;;;;;;25.30;13.15;;;;;;;;;;5010233;28;20200;-75
2021/03/03 04:42:00;;;;;;;22.42;13.85;;;;;;;;;;5018642;28;20210;-77
2021/03/03 04:44:27;;;;;;;24.10;13.05;;;;;;;;;;5031970;28;20224;-75
2021/03/03 04:46:54;;;;;;;20.42;12.38;;;;;;;;;;5032004;28;20199;-76
2021/03/03 04:49:21;;;;;;;22.75;13.13;;;;;;;;;;5031921;28;20292;-77
2021/03/03 04:51:48;;;;;;;18.90;12.90;;;;;;;;;;5023736;28;20350;-76
2021/03/03 04:54:15;;;;;;;21.67;13.10;;;;;;;;;;5017883;28;20266;-74
2021/03/03 04:56:41;;;;;;;19.15;11.93;;;;;;;;;;5029684;28;20199;-77
2021/03/03 04:59:08;;;;;;;17.77;12.63;;;;;;;;;;5033312;28;20199;-75
2021/03/03 05:01:36;;;;;;;25.75;13.25;;;;;;;;;;5033264;28;20669;-76
2021/03/03 05:04:03;;;;;;;23.90;12.80;;;;;;;;;;5033767;28;20223;-75
2021/03/03 05:06:30;;;;;;;19.77;12.13;;;;;;;;;;5034511;28;20197;-77
2021/03/03 05:08:57;;;;;;;25.65;13.05;;;;;;;;;;5023403;28;20200;-76
2021/03/03 05:11:23;;;;;;;21.05;12.43;;;;;;;;;;5017868;28;20224;-76
2021/03/03 05:13:50;;;;;;;23.05;12.20;;;;;;;;;;5032508;28;20223;-76
2021/03/03 05:16:17;;;;;;;23.25;13.32;;;;;;;;;;5032899;28;20582;-76
2021/03/03 05:18:45;;;;;;;23.15;13.75;;;;;;;;;;5032668;28;20214;-77
2021/03/03 05:21:12;;;;;;;20.10;12.65;;;;;;;;;;5033822;28;20199;-75
2021/03/03 05:23:39;;;;;;;16.60;12.15;;;;;;;;;;5034902;28;20545;-75
2021/03/03 05:26:06;;;;;;;18.20;12.20;;;;;;;;;;5035131;28;20286;-77
2021/03/03 05:28:34;;;;;;;23.92;13.23;;;;;;;;;;5017472;28;20208;-75
2021/03/03 05:31:01;;;;;;;19.38;11.27;;;;;;;;;;5007415;28;20203;-75
2021/03/03 05:33:29;;;;;;;19.92;12.93;;;;;;;;;;5018206;28;20685;-75
2021/03/03 05:35:57;;;;;;;20.85;13.07;;;;;;;;;;5012757;28;20689;-77
2021/03/03 05:38:24;;;;;;;20.77;12.88;;;;;;;;;;5012791;28;20207;-76
2021/03/03 05:40:52;;;;;;;27.83;13.25;;;;;;;;;;5013487;28;20200;-76
2021/03/03 05:43:19;;;;;;;23.63;13.60;;;;;;;;;;5025667;28;20229;-75
2021/03/03 05:45:47;;;;;;;25.25;14.30;;;;;;;;;;5034585;28;20291;-77
2021/03/03 05:48:15;;;;;;;20.15;12.60;;;;;;;;;;5034392;28;20211;-76
2021/03/03 05:50:43;;;;;;;22.15;12.57;;;;;;;;;;5034606;28;20205;-77
2021/03/03 05:53:13;;;;;;;20.45;13.18;;;;;;;;;;5023298;28;20216;-74
2021/03/03 05:55:40;;;;;;;21.20;13.82;;;;;;;;;;5023297;28;20707;-77
2021/03/03 05:58:09;;;;;;;25.35;13.45;;;;;;;;;;5032066;28;20261;-75
2021/03/03 06:00:36;;;;;;;21.33;12.68;;;;;;;;;;5031419;28;20219;-74
2021/03/03 06:03:03;;;;;;;24.30;13.23;;;;;;;;;;5031798;28;20192;-76
2021/03/03 06:05:30;;;;;;;21.35;12.48;;;;;;;;;;5033424;28;20222;-74
2021/03/03 06:07:57;;;;;;;23.63;13.20;;;;;;;;;;5033922;28;20207;-74
2021/03/03 06:10:25;;;;;;;18.85;12.02;;;;;;;;;;5034318;28;20226;-75
2021/03/03 06:12:52;;;;;;;21.55;14.13;;;;;;;;;;5024656;28;20693;-78
2021/03/03 06:15:19;;;;;;;21.27;12.80;;;;;;;;;;5022951;28;20196;-77
2021/03/03 06:17:45;;;;;;;19.52;12.65;;;;;;;;;;5015379;28;20265;-76
2021/03/03 06:20:13;;;;;;;22.52;13.95;;;;;;;;;;5011240;28;20208;-76
2021/03/03 06:22:40;;;;;;;19.00;12.38;;;;;;;;;;5022610;28;20191;-77
2021/03/03 06:25:17;;;;;;;19.58;12.30;;;;;;;;;;5020003;28;20238;-74
2021/03/03 06:27:45;;;;;;;24.85;14.88;;;;;;;;;;5025003;28;20676;-76
2021/03/03 06:30:13;;;;;;;23.55;13.43;;;;;;;;;;5019198;28;20261;-77
2021/03/03 06:32:54;;;;;;;20.08;12.20;;;;;;;;;;4993625;28;20314;-77
2021/03/03 06:35:21;;;;;;;22.55;13.20;;;;;;;;;;4995454;28;20192;-76
2021/03/03 06:37:56;;;;;;;19.65;12.75;;;;;;;;;;4998900;28;20199;-75
2021/03/03 06:40:23;;;;;;;25.10;13.18;;;;;;;;;;5017575;28;20224;-75
2021/03/03 06:42:51;;;;;;;24.20;13.98;;;;;;;;;;5020856;28;20299;-77
2021/03/03 06:45:32;;;;;;;23.10;14.10;;;;;;;;;;5030686;28;20960;-78
2021/03/03 06:47:59;;;;;;;23.40;12.68;;;;;;;;;;5015978;28;20200;-78
2021/03/03 06:50:35;;;;;;;19.30;13.07;;;;;;;;;;5031269;28;20203;-75
2021/03/03 06:53:02;;;;;;;21.35;12.85;;;;;;;;;;5017993;28;20349;-76
2021/03/03 06:55:43;;;;;;;22.77;12.77;;;;;;;;;;5018851;28;20337;-75
2021/03/03 06:58:25;;;;;;;23.00;13.30;;;;;;;;;;5021623;28;20191;-77
2021/03/03 07:00:53;;;;;;;23.15;12.75;;;;;;;;;;5014735;28;20197;-77
2021/03/03 07:03:24;;;;;;;21.70;12.50;;;;;;;;;;5001958;28;20232;-74
2021/03/03 07:05:51;;;;;;;20.95;12.75;;;;;;;;;;5018774;28;20204;-77
2021/03/03 07:08:18;;;;;;;21.92;13.70;;;;;;;;;;5015717;28;20561;-76
2021/03/03 07:10:45;;;;;;;21.20;13.35;;;;;;;;;;5009467;28;20236;-76
2021/03/03 07:13:12;;;;;;;20.85;13.35;;;;;;;;;;5010494;28;20229;-74
2021/03/03 07:15:39;;;;;;;24.48;14.43;;;;;;;;;;5011890;28;20559;-76
2021/03/03 07:18:27;;;;;;;20.95;13.23;;;;;;;;;;5013116;28;20197;-75
2021/03/03 07:20:54;;;;;;;19.77;13.48;;;;;;;;;;5011347;28;20687;-75
2021/03/03 07:23:40;;;;;;;23.95;15.00;;;;;;;;;;5012747;28;20213;-76
2021/03/03 07:26:07;;;;;;;23.02;12.73;;;;;;;;;;5010529;28;20202;-75
2021/03/03 07:28:34;;;;;;;22.52;14.38;;;;;;;;;;5001310;28;20225;-74
2021/03/03 07:31:01;;;;;;;23.08;13.98;;;;;;;;;;4997869;28;20203;-76
2021/03/03 07:33:30;;;;;;;25.40;14.40;;;;;;;;;;5010068;28;20605;-76
2021/03/03 07:35:57;;;;;;;30.85;14.23;;;;;;;;;;5010726;28;20607;-76
2021/03/03 07:38:25;;;;;;;22.25;13.63;;;;;;;;;;5009879;28;20291;-76
2021/03/03 07:40:52;;;;;;;23.45;14.05;;;;;;;;;;5012539;28;20207;-75
2021/03/03 07:43:23;;;;;;;18.50;12.93;;;;;;;;;;5012244;28;20691;-75
2021/03/03 07:45:50;;;;;;;21.25;13.50;;;;;;;;;;5010496;28;20449;-76
2021/03/03 07:48:20;;;;;;;28.75;14.65;;;;;;;;;;5001549;28;20204;-78
2021/03/03 07:50:47;;;;;;;23.90;13.30;;;;;;;;;;4998246;28;20201;-81
2021/03/03 07:53:14;;;;;;;27.00;14.67;;;;;;;;;;5008484;28;20481;-74
2021/03/03 07:55:42;;;;;;;26.73;14.17;;;;;;;;;;5009885;28;20507;-77
2021/03/03 07:58:09;;;;;;;28.43;13.93;;;;;;;;;;5010539;28;20454;-75
2021/03/03 08:00:40;;;;;;;28.00;16.13;;;;;;;;;;5010935;28;20469;-75
2021/03/03 08:03:07;;;;;;;33.43;15.00;;;;;;;;;;5010387;28;20465;-76
2021/03/03 08:05:36;;;;;;;24.40;14.10;;;;;;;;;;5010792;28;20469;-76
2021/03/03 08:08:22;;;;;;;26.20;13.60;;;;;;;;;;5011380;28;20454;-81
2021/03/03 08:10:49;;;;;;;25.63;14.30;;;;;;;;;;5004895;28;20487;-77
2021/03/03 08:13:16;;;;;;;24.70;12.70;;;;;;;;;;5002182;28;20493;-78
2021/03/03 08:15:44;;;;;;;23.33;13.93;;;;;;;;;;5008284;28;20943;-77
2021/03/03 08:18:26;;;;;;;25.80;14.13;;;;;;;;;;5007564;28;20453;-75
2021/03/03 08:20:54;;;;;;;21.70;14.13;;;;;;;;;;4990307;28;20929;-75
2021/03/03 08:23:37;;;;;;;30.90;15.27;;;;;;;;;;5003751;28;20565;-76
2021/03/03 08:26:05;;;;;;;23.13;14.67;;;;;;;;;;5008843;28;20454;-77
2021/03/03 08:28:33;;;;;;;21.10;13.20;;;;;;;;;;5011924;28;20447;-77
2021/03/03 08:31:15;;;;;;;25.40;14.63;;;;;;;;;;5010418;28;20933;-75
2021/03/03 08:33:43;;;;;;;24.90;14.37;;;;;;;;;;5007775;28;20482;-76
2021/03/03 08:36:11;;;;;;;24.73;14.83;;;;;;;;;;5001668;28;20447;-76
2021/03/03 08:38:38;;;;;;;32.53;14.77;;;;;;;;;;5010134;28;20985;-75
2021/03/03 08:41:20;;;;;;;22.97;15.07;;;;;;;;;;5013717;28;20514;-77
2021/03/03 08:43:48;;;;;;;25.37;14.23;;;;;;;;;;5013272;28;20550;-78
2021/03/03 08:46:30;;;;;;;26.17;14.70;;;;;;;;;;5005320;28;20451;-79
2021/03/03 08:49:11;;;;;;;21.50;13.70;;;;;;;;;;4993877;28;20501;-76
2021/03/03 08:51:39;;;;;;;23.13;15.30;;;;;;;;;;5007246;28;20874;-77
2021/03/03 08:54:07;;;;;;;26.67;14.90;;;;;;;;;;5015642;28;20483;-77
2021/03/03 08:56:34;;;;;;;23.80;14.83;;;;;;;;;;5009134;28;20459;-77
2021/03/03 08:59:03;;;;;;;21.67;13.97;;;;;;;;;;5004899;28;20970;-76
2021/03/03 09:01:45;;;;;;;20.23;14.07;;;;;;;;;;5013117;28;20465;-79
2021/03/03 09:04:12;;;;;;;23.17;14.63;;;;;;;;;;5012741;28;20490;-76
2021/03/03 09:06:39;;;;;;;25.43;14.60;;;;;;;;;;5013439;28;20449;-76
2021/03/03 09:09:05;;;;;;;21.03;15.37;;;;;;;;;;5013862;28;20984;-76
2021/03/03 09:11:32;;;;;;;26.53;15.30;;;;;;;;;;5026306;28;20554;-78
2021/03/03 09:14:00;;;;;;;23.70;13.67;;;;;;;;;;5016740;28;20487;-77
2021/03/03 09:16:28;;;;;;;22.80;15.60;;;;;;;;;;5017404;28;20460;-75
2021/03/03 09:19:03;;;;;;;24.03;14.53;;;;;;;;;;5031396;28;20457;-75
2021/03/03 09:21:31;;;;;;;22.80;14.90;;;;;;;;;;5032384;28;20481;-76
2021/03/03 09:24:07;;;;;;;25.90;15.13;;;;;;;;;;5031795;28;20462;-76
2021/03/03 09:26:34;;;;;;;21.73;14.57;;;;;;;;;;5026551;28;20812;-76
2021/03/03 09:29:01;;;;;;;22.33;14.67;;;;;;;;;;5020305;28;20995;-76
2021/03/03 09:31:30;;;;;;;23.10;14.53;;;;;;;;;;5014172;28;20446;-77
2021/03/03 09:33:57;;;;;;;24.30;15.00;;;;;;;;;;5023347;28;20564;-75
2021/03/03 09:36:24;;;;;;;27.70;14.17;;;;;;;;;;5014284;28;20532;-75
2021/03/03 09:38:54;;;;;;;21.70;15.20;;;;;;;;;;5031392;28;20466;-78
2021/03/03 09:41:21;;;;;;;16.73;12.80;;;;;;;;;;5034377;28;20451;-78
2021/03/03 09:44:03;;;;;;;19.03;13.73;;;;;;;;;;5033087;28;21054;-77
2021/03/03 09:46:50;;;;;;;31.10;16.33;;;;;;;;;;5019232;28;20450;-78
2021/03/03 09:49:24;;;;;;;20.60;13.70;;;;;;;;;;5030762;28;21003;-80
2021/03/03 09:51:51;;;;;;;19.93;13.60;;;;;;;;;;5002536;28;20462;-79
2021/03/03 09:54:32;;;;;;;25.37;14.83;;;;;;;;;;5028597;28;20484;-76
2021/03/03 09:57:08;;;;;;;22.70;14.20;;;;;;;;;;5016882;28;20442;-75
2021/03/03 09:59:35;;;;;;;24.60;14.60;;;;;;;;;;5014328;28;20480;-77
2021/03/03 10:02:03;;;;;;;22.63;13.70;;;;;;;;;;5032887;28;20460;-75
2021/03/03 10:04:30;;;;;;;25.60;14.87;;;;;;;;;;5018198;28;20468;-77
2021/03/03 10:06:58;;;;;;;22.57;14.03;;;;;;;;;;5033380;28;20444;-78
2021/03/03 10:09:25;;;;;;;19.30;13.67;;;;;;;;;;5034203;28;20567;-76
2021/03/03 10:11:52;;;;;;;19.87;13.20;;;;;;;;;;5032794;28;20517;-75
2021/03/03 10:14:19;;;;;;;25.10;15.43;;;;;;;;;;5019259;28;20483;-78
2021/03/03 10:16:59;;;;;;;20.03;13.20;;;;;;;;;;5016049;28;20470;-77
2021/03/03 10:19:26;;;;;;;21.17;13.77;;;;;;;;;;5021452;28;20472;-75
2021/03/03 10:21:53;;;;;;;25.30;13.80;;;;;;;;;;5011552;28;20487;-79
2021/03/03 10:24:22;;;;;;;21.63;14.83;;;;;;;;;;5020257;28;20520;-77
2021/03/03 10:26:51;;;;;;;24.10;15.87;;;;;;;;;;5027850;28;20923;-76
2021/03/03 10:29:31;;;;;;;22.37;14.40;;;;;;;;;;5019143;28;20449;-75
2021/03/03 10:32:06;;;;;;;23.50;13.73;;;;;;;;;;5030588;28;20452;-80
2021/03/03 10:34:34;;;;;;;19.20;12.33;;;;;;;;;;5030701;28;20478;-80
2021/03/03 10:37:01;;;;;;;25.23;13.70;;;;;;;;;;5031203;28;20445;-77
2021/03/03 10:39:28;;;;;;;24.90;14.30;;;;;;;;;;5032159;28;20592;-76
2021/03/03 10:42:00;;;;;;;19.13;13.73;;;;;;;;;;5033030;28;20586;-77
2021/03/03 10:44:37;;;;;;;24.10;14.43;;;;;;;;;;5033202;28;20890;-78
2021/03/03 10:47:04;;;;;;;26.00;15.10;;;;;;;;;;5033512;28;20446;-76
2021/03/03 10:49:31;;;;;;;24.63;12.70;;;;;;;;;;5028945;28;20537;-76
2021/03/03 10:51:59;;;;;;;23.17;14.80;;;;;;;;;;5018937;28;20453;-79
2021/03/03 10:54:31;;;;;;;18.30;13.97;;;;;;;;;;5027248;28;20564;-78
2021/03/03 10:57:05;;;;;;;30.03;15.30;;;;;;;;;;5013362;28;20938;-76
2021/03/03 10:59:32;;;;;;;24.90;14.73;;;;;;;;;;5031441;28;20778;-79
2021/03/03 11:02:01;;;;;;;24.43;14.70;;;;;;;;;;5034652;28;20453;-78
2021/03/03 11:04:42;;;;;;;21.90;13.67;;;;;;;;;;5032454;28;20470;-76
2021/03/03 11:07:11;;;;;;;27.03;15.00;;;;;;;;;;5017593;28;20449;-75
2021/03/03 11:09:38;;;;;;;21.40;14.23;;;;;;;;;;5015688;28;20510;-75
2021/03/03 11:12:06;;;;;;;18.87;13.87;;;;;;;;;;5014681;28;20489;-75
2021/03/03 11:14:33;;;;;;;24.93;13.90;;;;;;;;;;5002583;28;20492;-76
2021/03/03 11:17:01;;;;;;;21.77;14.00;;;;;;;;;;5027337;28;20500;-78
2021/03/03 11:19:28;;;;;;;28.20;15.70;;;;;;;;;;5011028;28;20481;-76
2021/03/03 11:21:56;;;;;;;25.50;15.90;;;;;;;;;;5026930;28;21023;-75
2021/03/03 11:24:24;;;;;;;23.73;14.57;;;;;;;;;;5026625;28;20474;-76
2021/03/03 11:26:52;;;;;;;25.77;16.47;;;;;;;;;;5014969;28;20450;-77
2021/03/03 11:29:19;;;;;;;25.40;14.57;;;;;;;;;;4994122;28;20871;-79
2021/03/03 11:31:46;;;;;;;22.80;15.43;;;;;;;;;;5007642;28;21228;-78
2021/03/03 11:34:13;;;;;;;26.90;15.97;;;;;;;;;;5020041;28;20488;-74
2021/03/03 11:36:40;;;;;;;26.90;15.70;;;;;;;;;;5027562;28;20514;-76
2021/03/03 11:39:07;;;;;;;33.73;18.03;;;;;;;;;;5010718;28;20886;-75
2021/03/03 11:41:35;;;;;;;22.77;15.47;;;;;;;;;;5029018;28;20472;-76
2021/03/03 11:44:01;;;;;;;31.80;17.27;;;;;;;;;;5028483;28;20478;-77
2021/03/03 11:46:28;;;;;;;26.03;15.93;;;;;;;;;;5028648;28;20495;-78
2021/03/03 11:48:55;;;;;;;35.03;17.57;;;;;;;;;;5019455;28;20442;-77
2021/03/03 11:51:22;;;;;;;24.97;16.33;;;;;;;;;;5014481;28;20449;-76
2021/03/03 11:53:50;;;;;;;26.57;16.50;;;;;;;;;;5025386;28;20493;-80
2021/03/03 11:56:17;;;;;;;31.60;16.90;;;;;;;;;;5026549;28;20453;-74
2021/03/03 11:58:45;;;;;;;31.93;15.93;;;;;;;;;;5026834;28;20457;-76
2021/03/03 12:01:11;;;;;;;23.90;15.67;;;;;;;;;;5027595;28;20951;-77
2021/03/03 12:03:38;;;;;;;27.10;16.90;;;;;;;;;;5028738;28;21115;-77
2021/03/03 12:06:05;;;;;;;31.63;18.40;;;;;;;;;;5029900;28;20465;-76
2021/03/03 12:08:32;;;;;;;29.03;16.87;;;;;;;;;;5032490;28;20546;-75
2021/03/03 12:10:59;;;;;;;31.60;17.00;;;;;;;;;;5026813;28;20475;-77
2021/03/03 12:13:26;;;;;;;25.37;16.40;;;;;;;;;;5018524;28;20482;-73
2021/03/03 12:15:53;;;;;;;24.93;17.07;;;;;;;;;;5029180;28;20454;-78
2021/03/03 12:18:20;;;;;;;25.90;14.10;;;;;;;;;;5030910;28;20846;-80
2021/03/03 12:20:47;;;;;;;29.20;15.50;;;;;;;;;;5030340;28;20452;-76
2021/03/03 12:23:14;;;;;;;24.23;16.00;;;;;;;;;;5031065;28;20481;-77
2021/03/03 12:25:40;;;;;;;24.10;15.60;;;;;;;;;;5033314;28;20499;-76
2021/03/03 12:28:07;;;;;;;28.40;16.07;;;;;;;;;;5034479;28;20448;-78
2021/03/03 12:30:34;;;;;;;30.07;18.17;;;;;;;;;;5035652;28;20499;-77
2021/03/03 12:33:02;;;;;;;30.57;18.00;;;;;;;;;;5033252;28;20469;-76
2021/03/03 12:35:29;;;;;;;30.20;17.57;;;;;;;;;;5020186;28;21186;-79
2021/03/03 12:37:56;;;;;;;31.37;16.00;;;;;;;;;;5029152;28;20446;-77
2021/03/03 12:40:22;;;;;;;32.00;16.90;;;;;;;;;;5033796;28;20458;-75
2021/03/03 12:42:49;;;;;;;26.60;15.33;;;;;;;;;;5033405;28;20799;-80
2021/03/03 12:45:16;;;;;;;28.20;14.10;;;;;;;;;;5034004;28;20505;-79
2021/03/03 12:47:43;;;;;;;29.20;15.50;;;;;;;;;;5035154;28;20424;-80
2021/03/03 12:50:11;;;;;;;26.90;14.10;;;;;;;;;;5035668;28;20946;-78
2021/03/03 12:52:38;;;;;;;34.97;15.90;;;;;;;;;;5035180;28;20942;-77
2021/03/03 12:55:05;;;;;;;24.50;15.07;;;;;;;;;;5035479;28;20556;-78
2021/03/03 12:57:32;;;;;;;28.40;16.47;;;;;;;;;;5022503;28;20926;-79
2021/03/03 12:59:59;;;;;;;32.23;18.23;;;;;;;;;;5025487;28;20450;-78
2021/03/03 13:02:26;;;;;;;30.33;14.93;;;;;;;;;;5033398;28;20539;-80
2021/03/03 13:04:53;;;;;;;28.50;14.00;;;;;;;;;;5033097;28;20500;-77
2021/03/03 13:07:20;;;;;;;27.10;14.37;;;;;;;;;;5033191;28;20452;-76
2021/03/03 13:09:47;;;;;;;24.70;15.27;;;;;;;;;;5032874;28;20465;-78
2021/03/03 13:12:14;;;;;;;25.53;14.00;;;;;;;;;;5020691;28;20944;-77
2021/03/03 13:14:41;;;;;;;28.27;16.10;;;;;;;;;;5016385;28;20481;-81
2021/03/03 13:17:08;;;;;;;27.90;15.63;;;;;;;;;;5025098;28;20841;-79
2021/03/03 13:19:35;;;;;;;23.13;13.73;;;;;;;;;;5032332;28;20943;-76
2021/03/03 13:22:02;;;;;;;25.70;13.40;;;;;;;;;;5015337;28;20434;-78
2021/03/03 13:24:29;;;;;;;27.30;15.10;;;;;;;;;;5034298;28;20468;-78
2021/03/03 13:26:56;;;;;;;24.63;14.67;;;;;;;;;;5034551;28;20449;-78
2021/03/03 13:29:23;;;;;;;27.30;14.97;;;;;;;;;;5035022;28;20865;-76
2021/03/03 13:31:50;;;;;;;24.83;14.17;;;;;;;;;;5034920;28;20448;-78
2021/03/03 13:34:17;;;;;;;24.80;14.40;;;;;;;;;;5023179;28;20947;-76
2021/03/03 13:36:44;;;;;;;26.47;15.30;;;;;;;;;;5023527;28;20446;-75
2021/03/03 13:39:12;;;;;;;28.57;15.90;;;;;;;;;;5032340;28;20420;-76
2021/03/03 13:41:40;;;;;;;26.93;15.67;;;;;;;;;;5032286;28;20446;-80
2021/03/03 13:44:07;;;;;;;32.07;14.43;;;;;;;;;;5032729;28;20865;-77
2021/03/03 13:46:34;;;;;;;24.73;14.03;;;;;;;;;;5032889;28;20460;-78
2021/03/03 13:49:01;;;;;;;26.60;14.00;;;;;;;;;;5016751;28;20447;-76
2021/03/03 13:51:27;;;;;;;27.60;14.67;;;;;;;;;;5034347;28;20445;-80
2021/03/03 13:53:54;;;;;;;27.87;15.70;;;;;;;;;;5034054;28;20461;-82
2021/03/03 13:56:21;;;;;;;26.33;15.80;;;;;;;;;;5026280;28;20432;-81
2021/03/03 13:58:49;;;;;;;25.90;15.57;;;;;;;;;;5020145;28;20495;-78
2021/03/03 14:01:15;;;;;;;30.27;13.37;;;;;;;;;;5031651;28;20450;-81
2021/03/03 14:03:43;;;;;;;22.90;12.23;;;;;;;;;;5031651;28;20474;-80
2021/03/03 14:06:09;;;;;;;24.40;11.90;;;;;;;;;;5032174;28;20536;-79
2021/03/03 14:08:36;;;;;;;23.90;11.57;;;;;;;;;;5032910;28;20515;-76
2021/03/03 14:11:03;;;;;;;24.63;12.23;;;;;;;;;;5033925;28;20568;-77
2021/03/03 14:13:30;;;;;;;27.83;11.93;;;;;;;;;;5033731;28;20481;-76
2021/03/03 14:15:58;;;;;;;27.07;12.67;;;;;;;;;;5033974;28;20423;-80
2021/03/03 14:18:24;;;;;;;21.07;12.17;;;;;;;;;;5029664;28;21031;-79
2021/03/03 14:20:51;;;;;;;22.00;11.17;;;;;;;;;;5019692;28;20898;-76
2021/03/03 14:23:18;;;;;;;20.70;12.70;;;;;;;;;;5013393;28;20472;-76